weather.gov     
National Weather Service

Terminal Aerodrome Forecast
NWS Homepage
This page is being discontinued on March 12, 2014.
The same data is available at this site. Please update your bookmarks.
Thank you, and we apologize for the inconvenience.
Please send an email to SR-SRH.Webmaster@noaa.gov with any concerns.


Current Version
Previous Version:    01  02  03  04  05  06  07  08  09  10  11  12  13  14  15  16  17  18  19  20  21  22  23  24  25  
[Printable]
537
FTUS44 KCRP 021300 AAA
TAFCRP
TAF AMD
KCRP 021330Z 0214/0312 13006KT P6SM SCT016
     FM021400 15010G18KT P6SM VCSH SCT025
      TEMPO 0214/0218 4SM RA BKN025
     FM021800 13014G21KT P6SM VCTS BKN035CB
      TEMPO 0218/0222 5SM -TSRA OVC030CB
     FM030100 13013KT P6SM SCT020 BKN120
      TEMPO 0303/0306 BKN020
     FM030800 12009KT P6SM VCSH BKN018 BKN100 PROB30 0308/0312 5SM
      -TSRA BKN012CB=


U.S. Dept. of Commerce
NOAA National Weather Service
1325 East West Highway
Silver Spring, MD 20910
E-mail: w-nws.webmaster@noaa.gov
Page last modified: May 16, 2007
NATIONAL WEATHER SERVICE: for Safety, for Work, for Fun - FOR LIFE